Time;durP1;ratioP1;P1;durP2;ratioP2;P2;SDS_P1;SDS_P2;PMS_P1;PMS_P2;Temp;Humidity;BMP_temperature;BMP_pressure;BME280_temperature;BME280_humidity;BME280_pressure;Samples;Min_cycle;Max_cycle;Signal;HPM_P1;HPM_P2
2021/04/24 00:01:30;;;;;;;8.20;6.15;;;;;;;7.48;63.83;99181.56;5050037;28;20045;-64
2021/04/24 00:04:00;;;;;;;12.70;6.57;;;;;;;7.51;64.36;99183.13;5050431;28;20091;-63
2021/04/24 00:06:27;;;;;;;11.18;6.65;;;;;;;7.52;64.05;99187.47;5050140;28;20473;-63
2021/04/24 00:08:53;;;;;;;11.32;6.63;;;;;;;7.55;63.61;99182.75;5049473;28;20422;-64
2021/04/24 00:11:20;;;;;;;8.45;5.93;;;;;;;7.56;64.25;99184.44;5050689;28;20037;-64
2021/04/24 00:13:46;;;;;;;8.10;5.90;;;;;;;7.47;64.19;99175.38;5050737;28;20087;-63
2021/04/24 00:16:13;;;;;;;9.70;7.00;;;;;;;7.59;64.17;99178.88;5050070;28;20442;-63
2021/04/24 00:18:38;;;;;;;10.98;6.97;;;;;;;7.61;64.26;99178.78;5048302;28;20025;-65
2021/04/24 00:21:05;;;;;;;7.53;6.15;;;;;;;7.66;63.93;99168.59;5049746;28;20082;-64
2021/04/24 00:23:31;;;;;;;9.45;6.60;;;;;;;7.60;63.46;99164.59;5049019;28;20068;-65
2021/04/24 00:25:57;;;;;;;10.32;6.50;;;;;;;7.59;63.87;99162.91;5049779;28;20519;-64
2021/04/24 00:28:22;;;;;;;10.07;6.53;;;;;;;7.67;63.02;99158.78;5049589;28;20035;-63
2021/04/24 00:30:48;;;;;;;11.77;6.55;;;;;;;7.58;62.98;99150.53;5049940;28;20444;-63
2021/04/24 00:33:14;;;;;;;13.20;6.95;;;;;;;7.41;63.34;99124.38;5049978;28;20057;-64
2021/04/24 00:35:40;;;;;;;12.95;7.30;;;;;;;7.55;63.34;99149.94;5049721;28;20059;-64
2021/04/24 00:38:06;;;;;;;13.35;6.72;;;;;;;7.54;63.34;99148.25;5049570;28;20036;-64
2021/04/24 00:40:31;;;;;;;11.50;6.35;;;;;;;7.52;63.38;99135.06;5049039;28;20491;-65
2021/04/24 00:43:01;;;;;;;9.45;6.35;;;;;;;7.52;63.70;99143.06;5050061;28;20136;-64
2021/04/24 00:45:27;;;;;;;9.10;6.35;;;;;;;7.52;63.39;99134.19;5049416;28;20059;-63
2021/04/24 00:47:53;;;;;;;11.20;5.22;;;;;;;7.52;63.34;99128.88;5048977;28;20028;-63
2021/04/24 00:50:22;;;;;;;7.28;5.00;;;;;;;7.51;63.48;99121.84;5049770;28;20075;-64
2021/04/24 00:52:47;;;;;;;8.65;5.57;;;;;;;7.41;63.32;99106.59;5049392;28;20037;-63
2021/04/24 00:55:13;;;;;;;10.68;5.78;;;;;;;7.43;63.58;99115.31;5049781;28;20045;-62
2021/04/24 00:57:40;;;;;;;8.30;5.88;;;;;;;7.36;63.55;99107.94;5069053;28;20043;-63
2021/04/24 01:00:08;;;;;;;8.40;5.93;;;;;;;7.31;63.72;99101.16;5069063;28;20043;-64
2021/04/24 01:02:34;;;;;;;12.77;6.55;;;;;;;7.37;63.82;99104.28;5053210;28;20037;-64
2021/04/24 01:05:00;;;;;;;11.07;6.63;;;;;;;7.31;63.90;99095.84;5049418;28;20041;-64
2021/04/24 01:07:26;;;;;;;9.20;6.18;;;;;;;7.37;64.21;99090.97;5048718;28;20120;-62
2021/04/24 01:09:51;;;;;;;13.32;6.65;;;;;;;7.39;64.25;99089.91;5049750;28;20062;-64
2021/04/24 01:12:17;;;;;;;11.35;7.70;;;;;;;7.00;64.73;99023.72;5048485;28;20111;-62
2021/04/24 01:14:42;;;;;;;11.75;7.65;;;;;;;7.27;64.45;99067.75;5050301;28;20090;-64
2021/04/24 01:17:08;;;;;;;12.50;8.10;;;;;;;7.36;64.26;99086.63;5053314;28;20086;-64
2021/04/24 01:19:34;;;;;;;13.95;8.02;;;;;;;7.36;64.31;99091.94;5053057;28;20509;-64
2021/04/24 01:22:09;;;;;;;9.65;7.28;;;;;;;7.44;65.08;99092.19;5052928;28;20463;-63
2021/04/24 01:24:36;;;;;;;11.60;7.72;;;;;;;7.38;64.33;99076.69;5050844;28;20122;-62
2021/04/24 01:27:03;;;;;;;12.55;8.35;;;;;;;7.32;64.61;99064.72;5053217;28;20040;-63
2021/04/24 01:29:29;;;;;;;10.70;7.57;;;;;;;7.42;64.26;99079.00;5051442;28;20381;-64
2021/04/24 01:31:55;;;;;;;8.90;6.72;;;;;;;7.29;64.23;99048.97;5052775;28;20056;-63
2021/04/24 01:34:20;;;;;;;8.23;6.55;;;;;;;7.34;64.12;99054.78;5052866;28;20045;-64
2021/04/24 01:36:46;;;;;;;10.45;7.25;;;;;;;7.26;63.92;99044.75;5052516;28;20076;-64
2021/04/24 01:39:11;;;;;;;12.77;7.13;;;;;;;7.29;64.18;99055.16;5052660;28;20429;-64
2021/04/24 01:41:37;;;;;;;11.43;7.35;;;;;;;7.35;64.27;99043.16;5051523;28;20079;-62
2021/04/24 01:44:03;;;;;;;9.98;7.25;;;;;;;7.39;64.08;99049.97;5052918;28;20099;-63
2021/04/24 01:46:29;;;;;;;10.93;7.00;;;;;;;7.03;64.11;98986.22;5052566;28;20041;-63
2021/04/24 01:48:54;;;;;;;9.63;7.03;;;;;;;7.40;63.98;99043.66;5052526;28;20090;-62
2021/04/24 01:51:20;;;;;;;8.65;6.55;;;;;;;7.37;64.34;99053.69;5053629;28;20503;-62
2021/04/24 01:53:46;;;;;;;10.55;6.93;;;;;;;7.09;64.25;99002.66;5052106;28;20033;-63
2021/04/24 01:56:12;;;;;;;10.02;6.80;;;;;;;7.33;63.91;99045.09;5052462;28;20515;-61
2021/04/24 01:58:38;;;;;;;9.95;6.80;;;;;;;7.10;64.04;99013.16;5052816;28;20041;-62
2021/04/24 02:01:08;;;;;;;8.98;6.78;;;;;;;7.30;64.72;99040.88;5052562;28;20029;-64
2021/04/24 02:03:34;;;;;;;10.73;6.47;;;;;;;7.11;64.53;99014.84;5051036;28;20052;-64
2021/04/24 02:06:00;;;;;;;10.63;7.32;;;;;;;7.23;65.35;99029.00;5052048;28;20522;-64
2021/04/24 02:08:32;;;;;;;12.23;7.03;;;;;;;7.22;65.56;99032.63;5052292;28;20102;-62
2021/04/24 02:10:58;;;;;;;10.52;7.10;;;;;;;7.10;65.35;99022.97;5052218;28;20075;-64
2021/04/24 02:13:38;;;;;;;9.90;6.38;;;;;;;7.25;65.77;99042.22;5052027;28;20048;-64
2021/04/24 02:16:13;;;;;;;9.07;6.80;;;;;;;7.16;66.03;99026.00;5051666;28;20033;-65
2021/04/24 02:18:38;;;;;;;10.93;5.70;;;;;;;7.15;65.38;99032.31;5052221;28;20069;-64
2021/04/24 02:21:05;;;;;;;11.20;6.50;;;;;;;7.13;66.08;99041.38;5051636;28;20255;-65
2021/04/24 02:23:35;;;;;;;10.88;6.88;;;;;;;7.13;66.87;99041.38;5051873;28;20399;-64
2021/04/24 02:26:03;;;;;;;10.35;6.25;;;;;;;7.14;66.58;99035.94;5051826;28;20044;-65
2021/04/24 02:28:29;;;;;;;11.65;6.38;;;;;;;6.99;66.83;98999.88;5052037;28;20033;-64
2021/04/24 02:30:54;;;;;;;9.63;5.38;;;;;;;7.08;66.39;99017.75;5052091;28;20381;-63
2021/04/24 02:33:20;;;;;;;7.97;5.68;;;;;;;7.04;66.59;99014.53;5051530;28;20472;-63
2021/04/24 02:35:53;;;;;;;11.52;6.28;;;;;;;7.10;67.51;99028.31;5051349;28;20056;-64
2021/04/24 02:38:22;;;;;;;11.02;6.10;;;;;;;6.91;66.74;99008.47;5052603;28;20037;-63
2021/04/24 02:40:48;;;;;;;10.80;6.10;;;;;;;7.04;67.17;99026.97;5051993;28;20156;-62
2021/04/24 02:43:15;;;;;;;9.10;6.20;;;;;;;7.00;67.12;99025.50;5051346;28;20037;-65
2021/04/24 02:45:40;;;;;;;10.80;5.72;;;;;;;6.94;67.28;99018.03;5051571;28;20029;-64
2021/04/24 02:48:06;;;;;;;10.15;5.93;;;;;;;6.96;67.21;99026.72;5051096;28;20503;-63
2021/04/24 02:50:32;;;;;;;10.35;5.93;;;;;;;6.85;67.24;99022.25;5051162;28;20044;-64
2021/04/24 02:52:58;;;;;;;7.05;5.47;;;;;;;6.82;67.18;99018.00;5050868;28;20396;-63
2021/04/24 02:55:24;;;;;;;10.00;6.05;;;;;;;7.13;65.49;99028.91;5051856;28;20044;-63
2021/04/24 02:57:49;;;;;;;9.35;5.97;;;;;;;6.97;66.01;99017.78;5051319;28;20032;-64
2021/04/24 03:00:18;;;;;;;10.05;5.88;;;;;;;6.85;66.52;99008.94;5050960;28;20393;-64
2021/04/24 03:02:44;;;;;;;6.90;5.28;;;;;;;6.99;65.61;99015.84;5050799;28;20032;-62
2021/04/24 03:05:18;;;;;;;6.85;4.55;;;;;;;7.02;65.44;98999.63;5051112;28;20399;-64
2021/04/24 03:07:44;;;;;;;9.40;4.78;;;;;;;6.96;65.36;99006.28;5050796;28;20025;-64
2021/04/24 03:10:13;;;;;;;8.00;5.22;;;;;;;6.83;66.29;99018.88;5050583;28;20500;-62
2021/04/24 03:12:38;;;;;;;9.13;5.70;;;;;;;6.64;66.76;98980.38;5050816;28;20481;-62
2021/04/24 03:15:06;;;;;;;8.23;5.22;;;;;;;6.75;66.97;98992.84;5051349;28;20040;-63
2021/04/24 03:17:32;;;;;;;8.15;5.18;;;;;;;6.76;66.92;98999.88;5050669;28;20033;-63
2021/04/24 03:19:58;;;;;;;9.40;5.13;;;;;;;6.74;67.20;98993.81;5050139;28;20055;-62
2021/04/24 03:22:23;;;;;;;9.25;5.50;;;;;;;6.84;66.56;99009.91;5050882;28;20437;-62
2021/04/24 03:24:49;;;;;;;7.25;5.45;;;;;;;6.47;66.84;98955.13;5049471;28;20236;-63
2021/04/24 03:27:14;;;;;;;8.32;4.95;;;;;;;6.63;67.37;98989.34;5050786;28;20024;-63
2021/04/24 03:29:40;;;;;;;9.05;5.20;;;;;;;6.68;67.41;98995.13;5050039;28;20041;-63
2021/04/24 03:32:06;;;;;;;5.95;4.75;;;;;;;6.58;67.74;98972.91;5050434;28;20135;-63
2021/04/24 03:34:31;;;;;;;8.13;5.25;;;;;;;6.40;67.63;98945.94;5050238;28;20114;-62
2021/04/24 03:36:57;;;;;;;9.25;5.68;;;;;;;6.65;67.50;98976.75;5050768;28;20033;-63
2021/04/24 03:39:23;;;;;;;11.00;5.47;;;;;;;6.30;67.23;98905.91;5050270;28;20479;-64
2021/04/24 03:41:50;;;;;;;7.32;5.50;;;;;;;6.67;67.46;98964.19;5049119;28;20078;-64
2021/04/24 03:44:15;;;;;;;6.20;5.10;;;;;;;6.63;67.36;98962.75;5050603;28;20033;-64
2021/04/24 03:46:40;;;;;;;8.80;6.22;;;;;;;6.62;67.50;98969.03;5051014;28;20044;-62
2021/04/24 03:49:06;;;;;;;10.35;5.97;;;;;;;6.61;67.68;98964.66;5049800;28;20124;-63
2021/04/24 03:51:31;;;;;;;6.95;5.25;;;;;;;6.59;68.06;98966.59;5049829;28;20044;-62
2021/04/24 03:53:57;;;;;;;10.68;6.05;;;;;;;6.61;68.20;98964.66;5051001;28;20051;-63
2021/04/24 03:56:22;;;;;;;10.48;6.47;;;;;;;6.59;68.25;98969.28;5050258;28;20033;-64
2021/04/24 03:58:48;;;;;;;8.23;5.68;;;;;;;6.62;67.71;98966.38;5050562;28;20043;-63
2021/04/24 04:01:14;;;;;;;6.95;5.68;;;;;;;6.62;68.00;98961.03;5049601;28;20492;-64
2021/04/24 04:03:40;;;;;;;6.93;5.45;;;;;;;6.58;68.22;98955.09;5051028;28;20128;-63
2021/04/24 04:06:05;;;;;;;7.80;5.53;;;;;;;6.58;68.35;98959.59;5050410;28;20127;-64
2021/04/24 04:08:31;;;;;;;6.25;5.35;;;;;;;6.63;68.37;98948.56;5049889;28;20495;-64
2021/04/24 04:10:57;;;;;;;7.18;5.43;;;;;;;6.61;68.53;98949.53;5049805;28;20048;-64
2021/04/24 04:13:22;;;;;;;8.65;5.38;;;;;;;6.60;68.00;98949.69;5049760;28;20037;-62
2021/04/24 04:15:49;;;;;;;7.25;5.35;;;;;;;6.32;68.47;98907.47;5049558;28;20044;-63
2021/04/24 04:18:19;;;;;;;9.00;6.22;;;;;;;6.54;68.70;98942.19;5049819;28;20029;-63
2021/04/24 04:20:48;;;;;;;8.50;6.00;;;;;;;6.49;68.96;98933.69;5049836;28;20033;-63
2021/04/24 04:23:14;;;;;;;8.50;6.50;;;;;;;6.09;69.31;98864.09;5049517;28;20211;-64
2021/04/24 04:25:40;;;;;;;10.30;7.00;;;;;;;6.49;69.23;98929.25;5050413;28;20119;-63
2021/04/24 04:28:07;;;;;;;9.48;6.75;;;;;;;6.44;69.43;98934.91;5050058;28;20052;-63
2021/04/24 04:30:33;;;;;;;9.60;6.93;;;;;;;6.41;69.24;98931.66;5050185;28;20039;-64
2021/04/24 04:33:00;;;;;;;8.55;6.55;;;;;;;6.40;69.62;98914.03;5050007;28;20057;-62
2021/04/24 04:35:26;;;;;;;9.35;6.53;;;;;;;6.46;69.18;98925.00;5049846;28;20151;-64
2021/04/24 04:37:53;;;;;;;9.68;6.32;;;;;;;6.40;69.37;98914.84;5050305;28;20045;-64
2021/04/24 04:40:18;;;;;;;8.35;6.03;;;;;;;6.51;68.86;98923.78;5050002;28;20025;-65
2021/04/24 04:42:44;;;;;;;9.98;6.28;;;;;;;6.14;69.02;98856.59;5049574;28;20550;-63
2021/04/24 04:45:12;;;;;;;9.30;6.07;;;;;;;6.45;69.06;98895.88;5050422;28;20045;-65
2021/04/24 04:47:38;;;;;;;9.88;6.20;;;;;;;6.57;68.76;98918.84;5050258;28;20033;-65
2021/04/24 04:50:06;;;;;;;9.13;6.35;;;;;;;6.57;68.68;98899.41;5049276;28;20033;-65
2021/04/24 04:52:32;;;;;;;7.47;5.72;;;;;;;6.52;68.44;98897.09;5050642;28;20040;-62
2021/04/24 04:54:57;;;;;;;10.82;6.25;;;;;;;6.51;68.42;98895.41;5049028;28;20037;-64
2021/04/24 04:57:23;;;;;;;9.10;6.13;;;;;;;6.42;68.37;98893.47;5050060;28;20043;-65
2021/04/24 04:59:48;;;;;;;6.70;5.47;;;;;;;6.19;68.48;98858.91;5050027;28;20481;-64
2021/04/24 05:02:14;;;;;;;7.75;5.93;;;;;;;6.36;68.46;98900.09;5049629;28;20090;-64
2021/04/24 05:04:39;;;;;;;8.30;6.10;;;;;;;6.53;68.94;98919.22;5049477;28;20112;-64
2021/04/24 05:07:05;;;;;;;6.88;5.00;;;;;;;6.52;68.32;98918.38;5049900;28;20039;-63
2021/04/24 05:09:30;;;;;;;7.50;5.18;;;;;;;6.45;68.06;98912.66;5049694;28;20342;-65
2021/04/24 05:11:56;;;;;;;7.25;5.65;;;;;;;6.37;68.30;98904.47;5048715;28;20041;-64
2021/04/24 05:14:22;;;;;;;7.68;5.40;;;;;;;6.25;68.75;98868.19;5049470;28;20032;-64
2021/04/24 05:16:48;;;;;;;8.13;5.55;;;;;;;6.45;68.77;98902.03;5049465;28;20047;-64
2021/04/24 05:19:13;;;;;;;10.98;5.60;;;;;;;6.23;68.68;98856.81;5049537;28;20044;-65
2021/04/24 05:21:39;;;;;;;7.93;5.50;;;;;;;6.45;68.53;98887.91;5049546;28;20029;-63
2021/04/24 05:24:06;;;;;;;9.73;4.53;;;;;;;6.42;68.29;98899.63;5049594;28;20033;-63
2021/04/24 05:26:32;;;;;;;8.80;5.30;;;;;;;6.27;68.52;98868.91;5049306;28;20041;-63
2021/04/24 05:28:58;;;;;;;6.30;5.05;;;;;;;6.27;68.93;98863.59;5048957;28;20039;-62
2021/04/24 05:31:26;;;;;;;6.53;4.72;;;;;;;6.43;69.33;98887.19;5049452;28;20494;-63
2021/04/24 05:33:52;;;;;;;8.48;4.82;;;;;;;6.46;69.36;98885.13;5047597;28;20135;-63
2021/04/24 05:36:19;;;;;;;5.90;4.35;;;;;;;6.50;68.78;98871.56;5047669;28;20461;-63
2021/04/24 05:38:44;;;;;;;6.63;4.70;;;;;;;6.49;69.34;98878.72;5048729;28;20456;-64
2021/04/24 05:41:12;;;;;;;5.80;3.85;;;;;;;6.39;69.29;98857.31;5049139;28;20510;-64
2021/04/24 05:43:37;;;;;;;5.72;3.90;;;;;;;6.51;68.54;98882.09;5049114;28;20064;-63
2021/04/24 05:46:03;;;;;;;7.82;4.00;;;;;;;6.57;68.42;98875.47;5049231;28;20061;-63
2021/04/24 05:48:29;;;;;;;6.88;3.88;;;;;;;6.59;68.67;98868.19;5048166;28;20056;-64
2021/04/24 05:50:55;;;;;;;7.40;4.10;;;;;;;6.50;68.67;98844.97;5048416;28;20621;-63
2021/04/24 05:53:20;;;;;;;5.85;4.60;;;;;;;6.61;68.72;98851.13;5048684;28;20041;-65
2021/04/24 05:55:46;;;;;;;7.07;3.90;;;;;;;6.71;68.95;98850.41;5047897;28;20032;-64
2021/04/24 05:58:11;;;;;;;4.53;4.00;;;;;;;6.64;68.57;98847.41;5048992;28;20037;-64
2021/04/24 06:00:37;;;;;;;4.47;3.70;;;;;;;6.40;68.15;98797.03;5050109;28;20044;-63
2021/04/24 06:03:02;;;;;;;5.13;3.80;;;;;;;6.73;68.08;98843.97;5052150;28;20044;-63
2021/04/24 06:05:28;;;;;;;5.57;3.25;;;;;;;6.75;67.69;98833.22;5052457;28;20033;-65
2021/04/24 06:07:53;;;;;;;6.32;3.60;;;;;;;6.72;68.08;98838.81;5052600;28;20154;-64
2021/04/24 06:10:19;;;;;;;3.65;3.10;;;;;;;6.74;68.24;98837.69;5053195;28;20037;-64
2021/04/24 06:12:46;;;;;;;5.70;3.55;;;;;;;6.80;68.25;98849.66;5052634;28;20052;-63
2021/04/24 06:15:13;;;;;;;4.50;3.13;;;;;;;6.85;68.31;98838.66;5052643;28;20451;-64
2021/04/24 06:17:39;;;;;;;8.85;3.25;;;;;;;6.91;68.28;98832.84;5052270;28;20135;-63
2021/04/24 06:20:06;;;;;;;4.80;3.35;;;;;;;7.00;68.05;98833.91;5053077;28;20069;-62
2021/04/24 06:22:32;;;;;;;4.78;3.58;;;;;;;7.02;68.25;98826.63;5052410;28;20051;-63
2021/04/24 06:24:57;;;;;;;6.15;3.78;;;;;;;7.01;68.15;98823.13;5052297;28;20029;-63
2021/04/24 06:27:23;;;;;;;5.07;3.63;;;;;;;7.03;68.21;98825.66;5051899;28;20033;-63
2021/04/24 06:29:48;;;;;;;3.92;3.00;;;;;;;7.10;68.22;98839.31;5051451;28;20028;-65
2021/04/24 06:32:14;;;;;;;5.78;3.30;;;;;;;7.08;68.01;98838.59;5040738;28;20041;-65
2021/04/24 06:34:40;;;;;;;5.25;3.30;;;;;;;7.08;67.50;98828.78;5041509;28;20135;-64
2021/04/24 06:37:06;;;;;;;3.50;3.00;;;;;;;6.94;67.03;98815.78;5041076;28;20385;-67
2021/04/24 06:39:32;;;;;;;4.85;2.70;;;;;;;6.97;67.48;98836.81;5040827;28;20041;-63
2021/04/24 06:41:58;;;;;;;3.72;3.25;;;;;;;6.90;67.47;98823.16;5051068;28;20029;-64
2021/04/24 06:44:23;;;;;;;3.75;2.80;;;;;;;6.87;67.25;98818.09;5051094;28;20475;-64
2021/04/24 06:46:49;;;;;;;3.80;2.90;;;;;;;6.89;67.67;98806.38;5050283;28;20029;-63
2021/04/24 06:49:14;;;;;;;3.80;2.83;;;;;;;6.90;67.53;98807.19;5040099;28;20029;-64
2021/04/24 06:51:40;;;;;;;3.92;2.97;;;;;;;6.93;67.49;98803.44;5031822;28;20119;-64
2021/04/24 06:54:05;;;;;;;5.05;2.83;;;;;;;6.94;67.22;98789.16;5030817;28;20520;-63
2021/04/24 06:56:31;;;;;;;3.22;2.60;;;;;;;6.97;66.20;98781.75;5031440;28;20041;-63
2021/04/24 06:58:56;;;;;;;3.15;2.38;;;;;;;6.92;66.66;98783.13;5046695;28;20035;-63
2021/04/24 07:01:23;;;;;;;6.40;3.10;;;;;;;6.98;66.96;98788.78;5051522;28;20384;-63
2021/04/24 07:03:48;;;;;;;3.50;2.67;;;;;;;6.88;67.06;98772.75;5052154;28;20068;-64
2021/04/24 07:06:14;;;;;;;4.32;2.92;;;;;;;7.14;66.73;98799.03;5052248;28;20065;-65
2021/04/24 07:08:39;;;;;;;2.97;2.78;;;;;;;7.22;66.68;98813.50;5051490;28;20029;-62
2021/04/24 07:11:05;;;;;;;3.55;2.70;;;;;;;7.16;65.94;98780.25;5051870;28;20052;-63
2021/04/24 07:13:30;;;;;;;3.63;3.10;;;;;;;7.24;66.48;98787.59;5051118;28;20033;-66
2021/04/24 07:16:02;;;;;;;5.00;2.80;;;;;;;7.33;66.08;98790.34;5051365;28;20037;-64
2021/04/24 07:18:27;;;;;;;3.17;2.50;;;;;;;7.41;65.88;98794.16;5049054;28;20033;-63
2021/04/24 07:20:53;;;;;;;3.65;2.30;;;;;;;7.47;65.85;98790.97;5063852;28;20087;-65
2021/04/24 07:23:18;;;;;;;3.70;2.35;;;;;;;7.36;65.40;98759.09;5049338;28;20481;-64
2021/04/24 07:25:44;;;;;;;3.95;2.50;;;;;;;7.55;65.41;98788.53;5051094;28;20045;-63
2021/04/24 07:28:09;;;;;;;2.70;2.30;;;;;;;7.24;65.21;98737.88;5050779;28;20028;-65
2021/04/24 07:30:35;;;;;;;3.88;2.47;;;;;;;7.59;65.05;98792.59;5050676;28;20040;-64
2021/04/24 07:33:00;;;;;;;3.97;2.75;;;;;;;7.55;65.05;98791.19;5050702;28;20055;-63
2021/04/24 07:35:26;;;;;;;3.20;2.40;;;;;;;7.53;65.35;98795.81;5040221;28;20500;-64
2021/04/24 07:37:51;;;;;;;6.00;2.83;;;;;;;7.15;65.15;98728.84;5049585;28;20052;-64
2021/04/24 07:40:17;;;;;;;2.65;2.20;;;;;;;7.38;65.33;98771.31;5050282;28;20063;-64
2021/04/24 07:42:43;;;;;;;2.60;2.10;;;;;;;7.40;65.30;98785.34;5050725;28;20037;-66
2021/04/24 07:45:09;;;;;;;6.70;4.70;;;;;;;7.40;65.33;98801.31;5050266;28;20032;-64
2021/04/24 07:47:35;;;;;;;3.78;2.50;;;;;;;7.38;65.25;98791.75;5046694;28;20041;-65
2021/04/24 07:50:01;;;;;;;3.88;2.45;;;;;;;7.37;65.09;98790.06;5050514;28;20036;-64
2021/04/24 07:52:26;;;;;;;3.35;2.38;;;;;;;7.31;65.15;98786.09;5050400;28;20435;-65
2021/04/24 07:54:52;;;;;;;4.18;2.40;;;;;;;7.39;65.32;98796.09;5050675;28;20060;-65
2021/04/24 07:57:17;;;;;;;3.10;2.30;;;;;;;7.31;65.28;98788.75;5050232;28;20037;-65
2021/04/24 07:59:45;;;;;;;7.50;3.25;;;;;;;7.32;64.79;98778.00;5049998;28;20029;-64
2021/04/24 08:02:12;;;;;;;3.00;2.25;;;;;;;7.18;64.96;98770.31;5042413;28;20074;-64
2021/04/24 08:04:38;;;;;;;3.78;2.10;;;;;;;7.29;65.14;98788.03;5050122;28;21018;-64
2021/04/24 08:07:04;;;;;;;3.22;2.13;;;;;;;7.31;64.79;98789.63;5050107;28;20120;-65
2021/04/24 08:09:29;;;;;;;2.92;2.20;;;;;;;6.99;64.45;98729.28;5050423;28;20043;-65
2021/04/24 08:11:55;;;;;;;2.10;1.90;;;;;;;7.20;64.76;98781.66;5049049;28;20645;-66
2021/04/24 08:14:20;;;;;;;3.83;2.40;;;;;;;7.21;64.95;98783.34;5050568;28;20041;-63
2021/04/24 08:16:46;;;;;;;2.30;2.10;;;;;;;7.22;64.73;98777.06;5049426;28;20138;-63
2021/04/24 08:19:11;;;;;;;2.90;2.35;;;;;;;7.15;64.83;98773.22;5049579;28;20103;-63
2021/04/24 08:21:39;;;;;;;2.47;2.20;;;;;;;7.19;64.91;98774.66;5049008;28;20082;-66
2021/04/24 08:24:05;;;;;;;2.92;2.00;;;;;;;7.18;64.83;98783.63;5049599;28;20090;-64
2021/04/24 08:26:31;;;;;;;3.88;3.08;;;;;;;7.15;65.28;98786.53;5050443;28;20140;-65
2021/04/24 08:28:57;;;;;;;2.85;2.25;;;;;;;7.16;65.37;98774.91;5049542;28;20565;-65
2021/04/24 08:31:22;;;;;;;4.32;2.05;;;;;;;7.17;65.13;98779.25;5049518;28;20036;-66
2021/04/24 08:33:48;;;;;;;2.55;2.10;;;;;;;6.90;65.23;98730.03;5049462;28;20048;-65
2021/04/24 08:36:14;;;;;;;3.08;2.22;;;;;;;7.03;65.22;98762.66;5049982;28;20866;-64
2021/04/24 08:38:39;;;;;;;4.32;2.15;;;;;;;7.13;64.73;98768.03;5048630;28;20028;-65
2021/04/24 08:41:06;;;;;;;2.70;1.77;;;;;;;7.13;64.56;98768.03;5044601;28;20029;-64
2021/04/24 08:43:37;;;;;;;4.57;1.52;;;;;;;7.04;65.04;98760.81;5046547;28;20045;-64
2021/04/24 08:46:03;;;;;;;2.67;1.27;;;;;;;6.94;64.56;98755.41;5042362;28;20133;-66
2021/04/24 08:48:29;;;;;;;1.70;1.42;;;;;;;6.96;65.16;98765.94;5044603;28;20028;-65
2021/04/24 08:50:55;;;;;;;2.25;1.33;;;;;;;7.00;65.16;98770.88;5046802;28;20459;-65
2021/04/24 08:53:21;;;;;;;1.05;0.95;;;;;;;6.96;65.03;98765.94;5048815;28;20570;-65
2021/04/24 08:55:48;;;;;;;2.80;1.30;;;;;;;7.00;65.35;98768.22;5047150;28;20537;-64
2021/04/24 08:58:15;;;;;;;1.88;1.40;;;;;;;6.98;65.33;98759.50;5048258;28;20041;-65
2021/04/24 09:00:43;;;;;;;2.30;1.50;;;;;;;6.80;65.29;98721.13;5050267;28;20064;-65
2021/04/24 09:03:11;;;;;;;1.42;1.25;;;;;;;7.03;65.33;98757.31;5049687;28;20036;-64
2021/04/24 09:05:38;;;;;;;7.57;3.80;;;;;;;7.23;65.02;98769.94;5049331;28;20071;-64
2021/04/24 09:08:06;;;;;;;3.03;1.65;;;;;;;7.25;64.46;98762.66;5049539;28;20040;-64
2021/04/24 09:10:56;;;;;;;3.85;1.90;;;;;;;7.29;64.02;98745.44;5049790;28;20079;-65
2021/04/24 09:13:24;;;;;;;1.38;1.27;;;;;;;7.28;64.15;98760.59;5048134;28;20083;-64
2021/04/24 09:15:51;;;;;;;1.77;1.50;;;;;;;7.29;64.35;98761.41;5049368;28;20135;-64
2021/04/24 09:18:17;;;;;;;1.67;1.42;;;;;;;7.29;64.39;98764.94;5049421;28;20037;-62
2021/04/24 09:20:56;;;;;;;2.42;1.70;;;;;;;7.28;64.18;98760.59;5049813;28;20070;-63
2021/04/24 09:23:28;;;;;;;2.05;1.70;;;;;;;7.26;64.26;98767.88;5049229;28;20043;-64
2021/04/24 09:26:02;;;;;;;2.65;1.90;;;;;;;7.25;64.54;98770.66;5049238;28;20052;-63
2021/04/24 09:28:31;;;;;;;3.67;2.17;;;;;;;7.25;64.33;98765.31;5049481;28;20067;-64
2021/04/24 09:30:58;;;;;;;2.55;1.92;;;;;;;6.96;64.60;98720.69;5049636;28;20074;-63
2021/04/24 09:33:31;;;;;;;3.03;2.03;;;;;;;7.29;65.17;98766.75;5049264;28;20053;-64
2021/04/24 09:35:56;;;;;;;2.80;2.33;;;;;;;7.27;64.43;98758.91;5050126;28;20500;-64
2021/04/24 09:38:27;;;;;;;4.63;2.20;;;;;;;7.31;64.57;98755.00;5052093;28;20051;-63
2021/04/24 09:41:15;;;;;;;2.67;2.17;;;;;;;7.51;64.72;98768.44;5052885;28;20044;-65
2021/04/24 09:44:03;;;;;;;2.53;2.33;;;;;;;7.50;63.80;98761.44;5048254;28;20052;-64
2021/04/24 09:46:30;;;;;;;4.10;2.17;;;;;;;7.07;63.97;98695.84;5037093;28;20072;-64
2021/04/24 09:49:24;;;;;;;3.30;2.40;;;;;;;7.56;64.33;98755.59;5053428;28;20043;-64
2021/04/24 09:51:58;;;;;;;2.53;2.28;;;;;;;7.53;64.03;98758.50;5052235;28;20052;-65
2021/04/24 09:54:35;;;;;;;2.72;2.33;;;;;;;7.61;64.19;98748.03;5052164;28;20461;-67
2021/04/24 09:57:06;;;;;;;2.03;1.90;;;;;;;7.65;63.04;98753.09;5053052;28;20401;-65
2021/04/24 09:59:49;;;;;;;4.45;2.33;;;;;;;7.63;63.22;98752.38;5052581;28;20044;-66
2021/04/24 10:02:27;;;;;;;2.67;2.35;;;;;;;7.79;63.26;98752.75;5053165;28;20037;-66
2021/04/24 10:05:08;;;;;;;2.15;1.95;;;;;;;7.85;63.84;98751.41;5052189;28;20484;-65
2021/04/24 10:07:39;;;;;;;2.85;2.40;;;;;;;7.87;63.27;98747.59;5052842;28;20037;-64
2021/04/24 10:10:10;;;;;;;2.42;2.22;;;;;;;7.96;62.35;98748.63;5052868;28;20036;-66
2021/04/24 10:12:37;;;;;;;3.25;2.42;;;;;;;8.04;62.25;98766.63;5035229;28;20025;-65
2021/04/24 10:15:03;;;;;;;4.13;2.63;;;;;;;8.11;62.38;98751.78;5064286;28;20119;-64
2021/04/24 10:17:29;;;;;;;2.55;2.33;;;;;;;8.24;61.50;98745.38;5054159;28;20037;-64
2021/04/24 10:19:55;;;;;;;2.47;2.20;;;;;;;8.31;61.25;98752.66;5055436;28;20123;-65
2021/04/24 10:22:23;;;;;;;2.75;2.55;;;;;;;8.39;61.78;98757.31;5053995;28;20035;-65
2021/04/24 10:24:50;;;;;;;2.95;2.10;;;;;;;8.49;61.34;98754.69;5061965;28;20070;-65
2021/04/24 10:27:18;;;;;;;2.28;2.08;;;;;;;8.61;61.21;98755.44;5061353;28;20045;-65
2021/04/24 10:29:45;;;;;;;2.47;2.25;;;;;;;8.71;61.03;98753.66;5068670;28;20388;-66
2021/04/24 10:32:11;;;;;;;3.00;2.40;;;;;;;8.77;60.34;98765.56;5060247;28;20526;-65
2021/04/24 10:34:38;;;;;;;1.98;1.77;;;;;;;8.85;60.73;98754.22;5063112;28;20040;-65
2021/04/24 10:37:04;;;;;;;2.53;1.98;;;;;;;8.93;60.11;98746.38;5060222;28;20082;-63
2021/04/24 10:39:32;;;;;;;2.40;2.20;;;;;;;9.00;59.82;98734.13;5052118;28;20033;-65
2021/04/24 10:42:02;;;;;;;2.15;1.90;;;;;;;9.00;59.98;98703.91;5051652;28;20037;-65
2021/04/24 10:44:46;;;;;;;2.70;2.17;;;;;;;9.43;59.88;98740.00;5051398;28;20055;-66
2021/04/24 10:47:12;;;;;;;2.97;1.92;;;;;;;9.47;59.16;98743.22;5049373;28;20037;-64
2021/04/24 10:49:56;;;;;;;5.18;1.90;;;;;;;9.58;59.00;98739.53;5050760;28;20047;-64
2021/04/24 10:52:23;;;;;;;3.13;2.50;;;;;;;9.56;58.59;98731.66;5051028;28;20123;-64
2021/04/24 10:55:16;;;;;;;2.28;2.08;;;;;;;9.75;58.08;98740.63;5051805;28;20059;-64
2021/04/24 10:57:52;;;;;;;2.30;1.70;;;;;;;9.56;58.07;98722.81;5051264;28;20508;-65
2021/04/24 11:00:19;;;;;;;2.03;1.77;;;;;;;9.32;58.35;98716.94;5052118;28;20443;-63
2021/04/24 11:02:53;;;;;;;1.80;1.60;;;;;;;9.22;58.91;98742.84;5051618;28;20045;-65
2021/04/24 11:05:27;;;;;;;3.28;1.60;;;;;;;9.14;59.60;98737.34;5051989;28;20098;-64
2021/04/24 11:08:11;;;;;;;2.50;1.90;;;;;;;9.18;59.91;98733.44;5051096;28;20066;-64
2021/04/24 11:10:58;;;;;;;2.85;1.55;;;;;;;9.17;59.57;98737.09;5031313;28;20087;-65
2021/04/24 11:13:26;;;;;;;1.73;1.63;;;;;;;8.93;59.86;98724.16;5030643;28;20037;-65
2021/04/24 11:15:54;;;;;;;3.83;1.60;;;;;;;8.97;59.81;98734.41;5032780;28;20041;-63
2021/04/24 11:18:20;;;;;;;1.60;1.50;;;;;;;8.98;59.92;98732.56;5051247;28;20037;-64
2021/04/24 11:21:04;;;;;;;1.80;1.42;;;;;;;9.11;59.87;98740.31;5051246;28;20039;-66
2021/04/24 11:23:29;;;;;;;1.60;1.50;;;;;;;9.17;59.19;98732.56;5050417;28;20041;-65
2021/04/24 11:25:58;;;;;;;1.60;1.50;;;;;;;9.34;58.47;98733.66;5049215;28;20492;-66
2021/04/24 11:28:23;;;;;;;1.70;1.60;;;;;;;9.50;58.24;98732.25;5050658;28;20072;-63
2021/04/24 11:30:59;;;;;;;1.83;1.20;;;;;;;9.57;57.99;98733.34;5050386;28;20064;-65
2021/04/24 11:33:39;;;;;;;2.88;1.23;;;;;;;9.73;58.16;98727.38;5050439;28;20068;-65
2021/04/24 11:39:00;;;;;;;2.00;1.42;;;;;;;9.97;57.25;98709.16;5050973;28;20064;-65
2021/04/24 11:41:32;;;;;;;3.42;1.40;;;;;;;9.96;57.01;98705.63;5050232;28;20058;-66
2021/04/24 11:43:59;;;;;;;3.15;1.33;;;;;;;9.57;56.71;98650.50;5049756;28;20033;-65